createdAt,value
2018-09-23T00:00:11.643Z,62.62
2018-09-23T00:02:37.988Z,62.94
2018-09-23T00:05:04.328Z,63.24
2018-09-23T00:07:30.645Z,63.63
2018-09-23T00:09:56.973Z,63.79
2018-09-23T00:12:23.318Z,63.78
2018-09-23T00:14:49.633Z,63.95
2018-09-23T00:17:15.980Z,64.11
2018-09-23T00:19:42.324Z,64.24
2018-09-23T00:22:08.663Z,64.55
2018-09-23T00:24:34.962Z,64.75
2018-09-23T00:27:01.283Z,64.87
2018-09-23T00:29:27.606Z,64.76
2018-09-23T00:31:53.958Z,64.93
2018-09-23T00:34:20.273Z,64.65
2018-09-23T00:36:46.617Z,64.86
2018-09-23T00:39:12.979Z,64.76
2018-09-23T00:41:39.299Z,64.63
2018-09-23T00:44:05.678Z,64.56
2018-09-23T00:46:32.015Z,64.66
2018-09-23T00:48:58.365Z,64.77
2018-09-23T00:51:24.673Z,64.36
2018-09-23T00:53:51.020Z,64.37
2018-09-23T00:56:17.339Z,64.23
2018-09-23T00:58:43.664Z,64.16
2018-09-23T01:01:10.054Z,64.37
2018-09-23T01:03:36.412Z,64.47
2018-09-23T01:06:02.727Z,64.28
2018-09-23T01:08:29.090Z,64.19
2018-09-23T01:10:55.433Z,64.09
2018-09-23T01:13:21.778Z,64.00
2018-09-23T01:15:48.176Z,63.53
2018-09-23T01:18:14.525Z,63.58
2018-09-23T01:20:40.864Z,63.45
2018-09-23T01:23:07.186Z,63.30
2018-09-23T01:25:33.528Z,62.85
2018-09-23T01:27:59.871Z,62.92
2018-09-23T01:30:26.238Z,63.01
2018-09-23T01:32:52.536Z,63.12
2018-09-23T01:35:18.902Z,62.75
2018-09-23T01:37:45.240Z,62.46
2018-09-23T01:40:11.580Z,62.24
2018-09-23T01:42:37.894Z,62.10
2018-09-23T01:45:04.220Z,62.09
2018-09-23T01:47:30.567Z,62.09
2018-09-23T01:49:56.883Z,61.68
2018-09-23T01:52:23.235Z,61.68
2018-09-23T01:54:49.553Z,61.68
2018-09-23T01:57:15.866Z,61.75
2018-09-23T01:59:42.211Z,61.50
2018-09-23T02:02:08.555Z,61.62
2018-09-23T02:04:34.878Z,61.65
2018-09-23T02:07:01.224Z,61.65
2018-09-23T02:09:27.576Z,61.49
2018-09-23T02:11:53.920Z,61.61
2018-09-23T02:14:20.280Z,61.54
2018-09-23T02:16:46.554Z,61.72
2018-09-23T02:19:12.874Z,62.08
2018-09-23T02:21:39.213Z,62.38
2018-09-23T02:24:05.554Z,62.59
2018-09-23T02:26:31.907Z,62.82
2018-09-23T02:28:58.256Z,63.26
2018-09-23T02:31:24.603Z,62.96
2018-09-23T02:33:50.943Z,62.93
2018-09-23T02:36:17.296Z,63.04
2018-09-23T02:38:43.700Z,62.90
2018-09-23T02:41:10.047Z,62.80
2018-09-23T02:43:36.369Z,62.45
2018-09-23T02:46:02.720Z,62.19
2018-09-23T02:48:29.070Z,62.43
2018-09-23T02:50:55.381Z,62.26
2018-09-23T02:53:21.715Z,62.03
2018-09-23T02:55:48.045Z,61.87
2018-09-23T02:58:14.424Z,61.95
2018-09-23T03:00:40.752Z,61.90
2018-09-23T03:03:07.097Z,61.88
2018-09-23T03:05:33.437Z,62.02
2018-09-23T03:07:59.816Z,62.08
2018-09-23T03:10:26.125Z,61.93
2018-09-23T03:12:52.440Z,61.66
2018-09-23T03:15:18.760Z,61.54
2018-09-23T03:17:45.102Z,61.50
2018-09-23T03:20:11.423Z,61.28
2018-09-23T03:22:37.759Z,61.11
2018-09-23T03:25:04.087Z,61.10
2018-09-23T03:27:30.400Z,60.99
2018-09-23T03:29:56.713Z,61.00
2018-09-23T03:32:23.058Z,60.83
2018-09-23T03:34:49.377Z,60.77
2018-09-23T03:37:15.734Z,60.63
2018-09-23T03:39:42.073Z,60.34
2018-09-23T03:42:08.462Z,60.45
2018-09-23T03:44:34.776Z,60.71
2018-09-23T03:47:01.095Z,60.51
2018-09-23T03:49:27.440Z,60.52
2018-09-23T03:51:53.822Z,60.52
2018-09-23T03:54:20.136Z,60.17
2018-09-23T03:56:46.523Z,60.41
2018-09-23T03:59:12.840Z,60.39
2018-09-23T04:04:05.497Z,60.05
2018-09-23T04:06:31.819Z,59.98
2018-09-23T04:08:58.135Z,60.05
2018-09-23T04:11:24.450Z,60.04
2018-09-23T04:13:50.778Z,60.07
2018-09-23T04:16:17.125Z,59.99
2018-09-23T04:18:43.460Z,59.83
2018-09-23T04:21:09.761Z,59.85
2018-09-23T04:23:36.149Z,59.90
2018-09-23T04:26:02.465Z,60.17
2018-09-23T04:28:28.782Z,60.06
2018-09-23T04:30:55.124Z,60.15
2018-09-23T04:33:21.464Z,60.29
2018-09-23T04:35:47.818Z,60.36
2018-09-23T04:38:14.163Z,60.40
2018-09-23T04:40:40.510Z,60.50
2018-09-23T04:43:06.824Z,60.37
2018-09-23T04:45:33.189Z,60.34
2018-09-23T04:47:59.524Z,60.58
2018-09-23T04:50:25.841Z,60.04
2018-09-23T04:52:52.169Z,60.31
2018-09-23T04:55:18.607Z,60.23
2018-09-23T04:57:44.835Z,60.52
2018-09-23T05:00:11.232Z,60.55
2018-09-23T05:02:37.589Z,60.56
2018-09-23T05:05:03.933Z,60.70
2018-09-23T05:07:30.250Z,60.45
2018-09-23T05:09:56.589Z,60.50
2018-09-23T05:12:22.914Z,60.64
2018-09-23T05:14:49.301Z,60.48
2018-09-23T05:17:15.623Z,60.69
2018-09-23T05:19:41.963Z,60.55
2018-09-23T05:22:08.350Z,60.66
2018-09-23T05:24:34.718Z,60.87
2018-09-23T05:27:01.033Z,60.11
2018-09-23T05:29:27.432Z,59.15
2018-09-23T05:31:53.755Z,59.11
2018-09-23T05:34:20.062Z,59.52
2018-09-23T05:36:46.403Z,59.70
2018-09-23T05:39:12.719Z,59.32
2018-09-23T05:41:39.076Z,59.04
2018-09-23T05:44:05.513Z,59.04
2018-09-23T05:46:31.789Z,58.67
2018-09-23T05:48:58.129Z,58.11
2018-09-23T05:51:24.447Z,58.60
2018-09-23T05:53:50.790Z,57.39
2018-09-23T05:56:17.103Z,57.37
2018-09-23T05:58:43.449Z,57.47
2018-09-23T06:01:09.787Z,56.70
2018-09-23T06:03:36.107Z,57.11
2018-09-23T06:06:02.455Z,56.86
2018-09-23T06:08:28.784Z,57.17
2018-09-23T06:10:55.099Z,56.88
2018-09-23T06:13:21.440Z,57.09
2018-09-23T06:15:47.755Z,56.55
2018-09-23T06:18:14.100Z,56.61
2018-09-23T06:20:40.463Z,56.57
2018-09-23T06:23:06.817Z,56.50
2018-09-23T06:25:33.127Z,55.71
2018-09-23T06:27:59.445Z,56.15
2018-09-23T06:30:25.783Z,56.10
2018-09-23T06:32:52.109Z,55.59
2018-09-23T06:35:18.426Z,55.87
2018-09-23T06:37:44.742Z,55.35
2018-09-23T06:40:11.063Z,55.18
2018-09-23T06:42:37.383Z,54.43
2018-09-23T06:45:03.745Z,54.54
2018-09-23T06:47:30.085Z,54.21
2018-09-23T06:49:56.423Z,53.69
2018-09-23T06:52:22.740Z,53.28
2018-09-23T06:54:49.059Z,53.38
2018-09-23T06:57:15.396Z,53.39
2018-09-23T06:59:41.721Z,52.39
2018-09-23T07:02:08.038Z,52.89
2018-09-23T07:04:34.455Z,51.63
2018-09-23T07:07:00.720Z,52.37
2018-09-23T07:09:27.059Z,52.55
2018-09-23T07:11:53.399Z,52.44
2018-09-23T07:14:19.764Z,52.11
2018-09-23T07:16:46.104Z,51.67
2018-09-23T07:19:12.444Z,51.18
2018-09-23T07:21:38.758Z,50.71
2018-09-23T07:24:05.218Z,50.32
2018-09-23T07:26:31.417Z,50.26
2018-09-23T07:28:57.735Z,50.25
2018-09-23T07:31:24.063Z,50.58
2018-09-23T07:33:50.403Z,50.43
2018-09-23T07:36:16.759Z,51.07
2018-09-23T07:38:43.081Z,50.74
2018-09-23T07:41:09.419Z,50.49
2018-09-23T07:43:35.719Z,50.39
2018-09-23T07:46:02.042Z,49.91
2018-09-23T07:48:28.358Z,49.45
2018-09-23T07:50:54.833Z,48.49
2018-09-23T07:53:21.151Z,49.24
2018-09-23T07:55:47.462Z,49.35
2018-09-23T07:58:13.779Z,49.70
2018-09-23T08:00:40.099Z,48.92
2018-09-23T08:03:06.435Z,48.60
2018-09-23T08:05:32.833Z,48.41
2018-09-23T08:07:59.122Z,48.77
2018-09-23T08:10:25.560Z,48.98
2018-09-23T08:12:52.049Z,48.60
2018-09-23T08:15:18.207Z,48.01
2018-09-23T08:17:44.547Z,47.71
2018-09-23T08:20:12.092Z,47.71
2018-09-23T08:22:38.307Z,48.24
2018-09-23T08:25:04.695Z,47.51
2018-09-23T08:27:31.016Z,47.93
2018-09-23T08:29:57.358Z,47.75
2018-09-23T08:32:23.714Z,48.30
2018-09-23T08:34:50.057Z,48.40
2018-09-23T08:37:16.481Z,48.13
2018-09-23T08:39:42.813Z,48.61
2018-09-23T08:42:09.145Z,47.78
2018-09-23T08:44:35.470Z,47.21
2018-09-23T08:47:01.814Z,46.88
2018-09-23T08:49:29.160Z,47.08
2018-09-23T08:51:55.581Z,47.77
2018-09-23T08:54:21.824Z,48.36
2018-09-23T08:56:48.221Z,47.60
2018-09-23T08:59:14.541Z,47.21
2018-09-23T09:01:40.872Z,46.59
2018-09-23T09:04:07.204Z,45.95
2018-09-23T09:06:33.551Z,46.15
2018-09-23T09:08:59.880Z,46.01
2018-09-23T09:11:26.260Z,46.20
2018-09-23T09:13:52.591Z,46.01
2018-09-23T09:16:18.932Z,45.25
2018-09-23T09:18:45.378Z,45.80
2018-09-23T09:21:11.647Z,45.81
2018-09-23T09:23:37.990Z,45.10
2018-09-23T09:26:04.384Z,44.32
2018-09-23T09:28:30.715Z,44.31
2018-09-23T09:30:57.048Z,44.56
2018-09-23T09:33:23.379Z,44.04
2018-09-23T09:35:49.712Z,43.67
2018-09-23T09:38:16.057Z,43.68
2018-09-23T09:40:42.387Z,44.13
2018-09-23T09:43:08.731Z,44.37
2018-09-23T09:45:35.074Z,43.97
2018-09-23T09:48:01.420Z,43.48
2018-09-23T09:50:27.771Z,43.78
2018-09-23T09:52:54.095Z,43.13
2018-09-23T09:55:20.508Z,43.31
2018-09-23T09:57:46.819Z,43.02
2018-09-23T10:00:14.613Z,42.86
2018-09-23T10:02:40.952Z,43.61
2018-09-23T10:05:07.285Z,42.82
2018-09-23T10:07:33.622Z,42.69
2018-09-23T10:09:59.968Z,43.02
2018-09-23T10:12:26.310Z,43.07
2018-09-23T10:14:52.707Z,43.42
2018-09-23T10:17:19.008Z,43.78
2018-09-23T10:19:45.405Z,43.19
2018-09-23T10:22:11.701Z,43.61
2018-09-23T10:24:38.039Z,43.66
2018-09-23T10:27:04.719Z,43.35
2018-09-23T10:29:31.043Z,43.04
2018-09-23T10:31:59.417Z,42.90
2018-09-23T10:34:25.753Z,42.82
2018-09-23T10:36:52.105Z,42.86
2018-09-23T10:39:18.452Z,42.65
2018-09-23T10:41:44.789Z,42.37
2018-09-23T10:44:11.133Z,41.62
2018-09-23T10:46:37.502Z,41.19
2018-09-23T10:49:03.805Z,41.85
2018-09-23T10:51:30.184Z,42.54
2018-09-23T10:53:56.519Z,42.35
2018-09-23T10:56:22.869Z,40.96
2018-09-23T10:58:49.203Z,41.08
2018-09-23T11:01:15.549Z,41.40
2018-09-23T11:03:41.950Z,41.49
2018-09-23T11:06:08.225Z,41.75
2018-09-23T11:08:34.560Z,41.54
2018-09-23T11:11:00.912Z,40.96
2018-09-23T11:13:27.245Z,40.86
2018-09-23T11:15:53.575Z,41.18
2018-09-23T11:18:19.938Z,41.18
2018-09-23T11:20:46.283Z,41.39
2018-09-23T11:23:12.753Z,41.45
2018-09-23T11:25:39.029Z,41.20
2018-09-23T11:28:05.367Z,41.38
2018-09-23T11:30:31.754Z,41.17
2018-09-23T11:32:58.063Z,41.21
2018-09-23T11:35:24.406Z,40.86
2018-09-23T11:37:50.756Z,40.61
2018-09-23T11:40:17.088Z,40.43
2018-09-23T11:42:43.459Z,40.28
2018-09-23T11:45:09.790Z,39.99
2018-09-23T11:47:36.126Z,40.33
2018-09-23T11:50:02.460Z,39.75
2018-09-23T11:52:28.849Z,40.63
2018-09-23T11:54:55.196Z,39.97
2018-09-23T11:57:21.620Z,39.38
2018-09-23T11:59:47.901Z,39.77
2018-09-23T12:02:14.356Z,40.36
2018-09-23T12:04:40.630Z,39.89
2018-09-23T12:07:06.968Z,39.73
2018-09-23T12:09:33.346Z,40.50
2018-09-23T12:11:59.689Z,40.24
2018-09-23T12:14:26.027Z,40.10
2018-09-23T12:16:52.402Z,40.22
2018-09-23T12:19:18.723Z,40.51
2018-09-23T12:21:45.059Z,41.24
2018-09-23T12:24:11.390Z,39.51
2018-09-23T12:26:37.862Z,39.08
2018-09-23T12:29:04.269Z,38.70
2018-09-23T12:31:30.576Z,39.19
2018-09-23T12:33:56.907Z,38.87
2018-09-23T12:36:23.343Z,39.74
2018-09-23T12:38:49.672Z,40.35
2018-09-23T12:41:16.061Z,38.62
2018-09-23T12:43:42.402Z,38.89
2018-09-23T12:46:08.788Z,38.63
2018-09-23T12:48:35.197Z,39.17
2018-09-23T12:51:01.559Z,38.85
2018-09-23T12:53:28.094Z,38.66
2018-09-23T12:55:54.363Z,39.63
2018-09-23T12:58:20.733Z,39.71
2018-09-23T13:00:47.101Z,39.97
2018-09-23T13:03:13.461Z,39.06
2018-09-23T13:05:39.816Z,39.99
2018-09-23T13:08:06.161Z,40.91
2018-09-23T13:10:32.579Z,40.35
2018-09-23T13:12:58.885Z,41.38
2018-09-23T13:15:25.225Z,40.67
2018-09-23T13:17:52.704Z,40.89
2018-09-23T13:20:19.028Z,39.55
2018-09-23T13:22:45.577Z,40.47
2018-09-23T13:25:11.902Z,40.04
2018-09-23T13:27:38.244Z,40.51
2018-09-23T13:30:04.774Z,41.27
2018-09-23T13:32:31.344Z,41.27
2018-09-23T13:34:57.753Z,41.74
2018-09-23T13:37:24.303Z,41.60
2018-09-23T13:39:50.787Z,41.00
2018-09-23T13:42:17.086Z,41.33
2018-09-23T13:44:43.427Z,41.63
2018-09-23T13:47:09.841Z,40.93
2018-09-23T13:49:36.222Z,41.24
2018-09-23T13:52:02.558Z,41.18
2018-09-23T13:54:28.941Z,40.88
2018-09-23T13:56:55.231Z,42.30
2018-09-23T13:59:21.570Z,42.42
2018-09-23T14:01:48.067Z,43.00
2018-09-23T14:04:14.411Z,42.92
2018-09-23T14:06:46.896Z,42.87
2018-09-23T14:09:07.399Z,43.17
2018-09-23T14:11:33.733Z,41.93
2018-09-23T14:14:00.152Z,41.45
2018-09-23T14:16:26.683Z,41.67
2018-09-23T14:18:53.024Z,43.40
2018-09-23T14:21:19.379Z,42.41
2018-09-23T14:23:45.741Z,43.46
2018-09-23T14:26:12.075Z,43.50
2018-09-23T14:28:38.456Z,42.35
2018-09-23T14:31:05.184Z,42.77
2018-09-23T14:33:31.711Z,43.48
2018-09-23T14:35:58.056Z,43.85
2018-09-23T14:38:24.387Z,43.12
2018-09-23T14:40:50.779Z,43.48
2018-09-23T14:43:17.118Z,44.11
2018-09-23T14:45:43.488Z,44.42
2018-09-23T14:48:09.885Z,43.67
2018-09-23T14:50:36.214Z,43.66
2018-09-23T14:53:02.567Z,43.66
2018-09-23T14:55:28.913Z,44.03
2018-09-23T14:57:55.269Z,43.81
2018-09-23T15:00:21.608Z,44.59
2018-09-23T15:02:47.955Z,43.74
2018-09-23T15:05:14.286Z,44.03
2018-09-23T15:07:40.610Z,43.23
2018-09-23T15:10:06.997Z,43.43
2018-09-23T15:12:33.396Z,44.35
2018-09-23T15:14:59.701Z,44.71
2018-09-23T15:17:26.033Z,44.31
2018-09-23T15:19:52.438Z,43.73
2018-09-23T15:22:18.793Z,44.00
2018-09-23T15:24:45.137Z,43.62
2018-09-23T15:27:11.609Z,43.59
2018-09-23T15:29:37.956Z,44.31
2018-09-23T15:32:04.370Z,43.75
2018-09-23T15:34:30.693Z,44.14
2018-09-23T15:36:57.044Z,43.73
2018-09-23T15:39:23.454Z,43.79
2018-09-23T15:41:49.792Z,43.69
2018-09-23T15:44:16.148Z,43.83
2018-09-23T15:46:42.692Z,42.74
2018-09-23T15:49:09.043Z,42.90
2018-09-23T15:51:35.456Z,43.33
2018-09-23T15:54:01.841Z,43.29
2018-09-23T15:56:28.196Z,43.38
2018-09-23T15:58:54.550Z,43.70
2018-09-23T16:01:20.896Z,43.82
2018-09-23T16:03:47.241Z,43.96
2018-09-23T16:06:13.567Z,44.05
2018-09-23T16:08:39.906Z,43.80
2018-09-23T16:11:06.259Z,43.48
2018-09-23T16:13:32.559Z,43.65
2018-09-23T16:15:58.911Z,43.67
2018-09-23T16:18:25.389Z,43.72
2018-09-23T16:20:51.716Z,43.42
2018-09-23T16:23:18.065Z,43.35
2018-09-23T16:25:44.437Z,43.53
2018-09-23T16:28:10.743Z,43.21
2018-09-23T16:30:37.133Z,43.62
2018-09-23T16:33:03.482Z,43.49
2018-09-23T16:35:29.828Z,43.31
2018-09-23T16:37:56.164Z,43.06
2018-09-23T16:40:22.539Z,43.18
2018-09-23T16:42:48.831Z,43.12
2018-09-23T16:45:15.176Z,43.01
2018-09-23T16:47:41.532Z,43.29
2018-09-23T16:50:07.900Z,43.50
2018-09-23T16:52:34.250Z,43.73
2018-09-23T16:55:00.624Z,43.66
2018-09-23T16:57:26.938Z,43.96
2018-09-23T16:59:53.281Z,43.65
2018-09-23T17:02:20.028Z,43.39
2018-09-23T17:04:46.353Z,43.60
2018-09-23T17:07:12.728Z,43.52
2018-09-23T17:09:39.055Z,43.92
2018-09-23T17:12:05.401Z,43.82
2018-09-23T17:14:31.762Z,44.15
2018-09-23T17:16:58.097Z,44.12
2018-09-23T17:19:24.426Z,44.47
2018-09-23T17:21:50.846Z,44.67
2018-09-23T17:24:17.147Z,45.24
2018-09-23T17:26:43.570Z,45.53
2018-09-23T17:29:09.926Z,45.60
2018-09-23T17:31:36.263Z,45.70
2018-09-23T17:34:02.621Z,45.67
2018-09-23T17:36:28.976Z,45.77
2018-09-23T17:38:55.284Z,45.92
2018-09-23T17:41:21.642Z,46.61
2018-09-23T17:43:47.990Z,46.92
2018-09-23T17:46:14.333Z,46.98
2018-09-23T17:48:40.734Z,47.08
2018-09-23T17:51:07.030Z,47.16
2018-09-23T17:53:33.351Z,47.20
2018-09-23T17:55:59.698Z,47.54
2018-09-23T17:58:26.050Z,47.72
2018-09-23T18:00:52.556Z,47.58
2018-09-23T18:03:18.882Z,48.05
2018-09-23T18:05:45.277Z,48.00
2018-09-23T18:08:11.619Z,47.95
2018-09-23T18:10:37.941Z,47.99
2018-09-23T18:13:04.264Z,48.06
2018-09-23T18:15:30.621Z,48.19
2018-09-23T18:17:56.963Z,48.32
2018-09-23T18:20:23.290Z,48.45
2018-09-23T18:22:49.629Z,48.40
2018-09-23T18:25:15.956Z,48.35
2018-09-23T18:27:42.302Z,48.45
2018-09-23T18:30:08.694Z,48.41
2018-09-23T18:32:35.042Z,48.42
2018-09-23T18:35:01.401Z,48.53
2018-09-23T18:37:27.877Z,48.51
2018-09-23T18:39:54.137Z,48.94
2018-09-23T18:42:20.449Z,49.16
2018-09-23T18:44:46.776Z,49.02
2018-09-23T18:47:13.114Z,49.10
2018-09-23T18:49:39.467Z,49.29
2018-09-23T18:52:05.785Z,49.59
2018-09-23T18:54:32.118Z,49.57
2018-09-23T18:56:58.450Z,49.66
2018-09-23T18:59:24.771Z,49.93
2018-09-23T19:01:51.121Z,49.91
2018-09-23T19:04:17.476Z,49.91
2018-09-23T19:06:43.817Z,50.29
2018-09-23T19:09:10.145Z,50.21
2018-09-23T19:11:36.512Z,50.40
2018-09-23T19:14:02.841Z,50.48
2018-09-23T19:16:29.190Z,50.44
2018-09-23T19:18:55.531Z,50.33
2018-09-23T19:21:24.895Z,50.41
2018-09-23T19:23:51.128Z,50.60
2018-09-23T19:26:17.461Z,50.52
2018-09-23T19:28:43.793Z,50.57
2018-09-23T19:31:10.172Z,50.78
2018-09-23T19:33:36.490Z,51.05
2018-09-23T19:36:02.917Z,51.09
2018-09-23T19:38:29.322Z,51.37
2018-09-23T19:40:55.631Z,51.39
2018-09-23T19:43:23.145Z,51.31
2018-09-23T19:45:48.349Z,51.58
2018-09-23T19:48:14.708Z,51.68
2018-09-23T19:50:41.065Z,51.95
2018-09-23T19:53:07.412Z,51.92
2018-09-23T19:55:33.780Z,51.80
2018-09-23T19:58:00.139Z,52.09
2018-09-23T20:00:26.679Z,52.21
2018-09-23T20:02:53.128Z,52.33
2018-09-23T20:05:19.489Z,52.27
2018-09-23T20:07:45.820Z,52.86
2018-09-23T20:10:12.178Z,53.11
2018-09-23T20:12:38.542Z,53.13
2018-09-23T20:15:04.864Z,53.09
2018-09-23T20:17:31.243Z,53.17
2018-09-23T20:19:57.591Z,53.40
2018-09-23T20:22:23.937Z,53.37
2018-09-23T20:24:50.313Z,53.68
2018-09-23T20:27:16.657Z,53.73
2018-09-23T20:29:43.014Z,53.68
2018-09-23T20:32:11.970Z,54.02
2018-09-23T20:34:35.723Z,54.14
2018-09-23T20:37:02.115Z,54.28
2018-09-23T20:39:28.434Z,54.01
2018-09-23T20:41:54.828Z,54.46
2018-09-23T20:44:21.207Z,54.35
2018-09-23T20:46:47.591Z,54.52
2018-09-23T20:49:13.940Z,54.42
2018-09-23T20:51:40.404Z,54.34
2018-09-23T20:54:06.649Z,54.37
2018-09-23T20:56:33.013Z,54.45
2018-09-23T20:58:59.356Z,54.32
2018-09-23T21:01:25.708Z,54.19
2018-09-23T21:03:52.051Z,54.00
2018-09-23T21:06:18.408Z,53.93
2018-09-23T21:08:44.744Z,53.70
2018-09-23T21:11:11.112Z,54.00
2018-09-23T21:13:37.505Z,53.93
2018-09-23T21:16:03.840Z,53.80
2018-09-23T21:18:30.197Z,53.87
2018-09-23T21:20:56.544Z,54.09
2018-09-23T21:23:22.897Z,54.18
2018-09-23T21:25:49.245Z,54.27
2018-09-23T21:28:15.606Z,54.21
2018-09-23T21:30:41.934Z,54.14
2018-09-23T21:33:08.295Z,54.32
2018-09-23T21:35:34.613Z,54.44
2018-09-23T21:38:00.935Z,54.84
2018-09-23T21:40:27.272Z,54.98
2018-09-23T21:42:53.702Z,55.02
2018-09-23T21:45:20.045Z,55.15
2018-09-23T21:47:46.405Z,54.99
2018-09-23T21:50:12.741Z,55.11
2018-09-23T21:52:39.069Z,55.68
2018-09-23T21:55:05.624Z,55.77
2018-09-23T21:57:31.927Z,55.70
2018-09-23T21:59:58.297Z,55.98
2018-09-23T22:02:24.674Z,55.51
2018-09-23T22:04:51.017Z,55.57
2018-09-23T22:07:17.437Z,55.90
2018-09-23T22:09:43.765Z,56.06
2018-09-23T22:12:10.098Z,55.95
2018-09-23T22:14:36.485Z,56.13
2018-09-23T22:17:02.893Z,56.07
2018-09-23T22:19:29.284Z,56.32
2018-09-23T22:21:55.720Z,56.31
2018-09-23T22:24:21.976Z,56.70
2018-09-23T22:26:48.321Z,56.38
2018-09-23T22:29:14.657Z,56.66
2018-09-23T22:31:40.975Z,56.86
2018-09-23T22:34:07.294Z,57.26
2018-09-23T22:36:33.624Z,57.05
2018-09-23T22:38:59.964Z,57.32
2018-09-23T22:41:26.305Z,57.45
2018-09-23T22:43:52.662Z,57.67
2018-09-23T22:46:19.016Z,57.44
2018-09-23T22:48:45.388Z,57.56
2018-09-23T22:51:11.732Z,57.69
2018-09-23T22:53:38.067Z,57.66
2018-09-23T22:56:04.395Z,57.99
2018-09-23T22:58:30.748Z,58.13
2018-09-23T23:00:57.061Z,58.24
2018-09-23T23:03:23.401Z,58.45
2018-09-23T23:05:49.758Z,58.38
2018-09-23T23:08:16.092Z,58.70
2018-09-23T23:10:42.419Z,58.74
2018-09-23T23:13:08.744Z,59.06
2018-09-23T23:15:35.072Z,58.94
2018-09-23T23:18:01.389Z,59.18
2018-09-23T23:20:27.730Z,59.24
2018-09-23T23:22:54.052Z,59.32
2018-09-23T23:25:20.388Z,59.49
2018-09-23T23:27:46.710Z,59.62
2018-09-23T23:30:13.026Z,59.54
2018-09-23T23:32:39.424Z,60.03
2018-09-23T23:35:05.717Z,59.88
2018-09-23T23:37:32.041Z,59.69
2018-09-23T23:39:58.401Z,59.74
2018-09-23T23:42:24.693Z,59.86
2018-09-23T23:44:51.016Z,59.78
2018-09-23T23:47:17.379Z,59.83
2018-09-23T23:49:43.799Z,59.87
2018-09-23T23:52:10.094Z,60.01
2018-09-23T23:54:36.409Z,60.19
2018-09-23T23:57:02.760Z,60.28
2018-09-23T23:59:29.094Z,60.22
